Time;durP1;ratioP1;P1;durP2;ratioP2;P2;SDS_P1;SDS_P2;PMS_P1;PMS_P2;Temp;Humidity;BMP_temperature;BMP_pressure;BME280_temperature;BME280_humidity;BME280_pressure;Samples;Min_cycle;Max_cycle;Signal;HPM_P1;HPM_P2
2021/06/01 00:01:54;;;;;;;0.00;0.00;;;20.60;75.00;;;;;;4172803;28;20106;-48
2021/06/01 00:04:16;;;;;;;0.30;0.30;;;20.60;75.10;;;;;;4174334;28;20052;-50
2021/06/01 00:06:38;;;;;;;1.33;1.25;;;20.60;75.20;;;;;;4173753;28;20132;-49
2021/06/01 00:09:00;;;;;;;0.00;0.00;;;20.60;75.20;;;;;;4160959;28;20115;-50
2021/06/01 00:11:24;;;;;;;0.00;0.00;;;20.60;75.10;;;;;;4174586;28;20044;-49
2021/06/01 00:13:46;;;;;;;0.00;0.00;;;20.60;75.20;;;;;;4174589;28;20400;-48
2021/06/01 00:16:08;;;;;;;1.13;0.98;;;20.60;75.30;;;;;;4166646;28;20061;-48
2021/06/01 00:18:29;;;;;;;1.30;1.20;;;20.60;75.40;;;;;;4173009;28;20061;-47
2021/06/01 00:20:51;;;;;;;0.20;0.20;;;20.50;75.40;;;;;;4174310;28;20491;-51
2021/06/01 00:23:12;;;;;;;0.10;0.10;;;20.60;75.60;;;;;;4174416;28;20128;-51
2021/06/01 00:25:34;;;;;;;0.00;0.00;;;20.50;75.60;;;;;;4172856;28;20079;-49
2021/06/01 00:27:57;;;;;;;0.10;0.10;;;20.50;75.60;;;;;;4161116;28;20053;-53
2021/06/01 00:30:20;;;;;;;0.98;0.68;;;20.50;75.70;;;;;;4157619;28;20140;-48
2021/06/01 00:32:41;;;;;;;0.45;0.28;;;20.50;75.70;;;;;;4157526;28;20538;-51
2021/06/01 00:35:03;;;;;;;0.00;0.00;;;20.50;75.70;;;;;;4173059;28;20522;-49
2021/06/01 00:37:24;;;;;;;0.00;0.00;;;20.50;75.90;;;;;;4174109;28;20044;-50
2021/06/01 00:39:46;;;;;;;0.57;0.57;;;20.40;75.80;;;;;;4174274;28;20057;-47
2021/06/01 00:42:08;;;;;;;0.30;0.30;;;20.40;75.80;;;;;;4174038;28;20140;-49
2021/06/01 00:44:32;;;;;;;0.40;0.40;;;20.40;75.80;;;;;;4173945;28;20051;-46
2021/06/01 00:46:53;;;;;;;0.00;0.00;;;20.40;75.90;;;;;;4167591;28;20514;-47
2021/06/01 00:49:15;;;;;;;0.25;0.25;;;20.40;75.90;;;;;;4157611;28;20546;-48
2021/06/01 00:51:37;;;;;;;0.15;0.15;;;20.40;76.00;;;;;;4157648;28;20042;-46
2021/06/01 00:54:01;;;;;;;0.08;0.08;;;20.30;76.90;;;;;;4157385;28;20412;-48
2021/06/01 00:56:24;;;;;;;0.20;0.20;;;20.30;76.10;;;;;;4158478;28;20053;-48
2021/06/01 00:58:45;;;;;;;0.75;0.75;;;20.30;76.10;;;;;;4160693;28;20069;-48
2021/06/01 01:01:19;;;;;;;0.30;0.17;;;20.30;76.10;;;;;;4162415;28;20069;-50
2021/06/01 01:03:41;;;;;;;0.00;0.00;;;20.30;76.20;;;;;;4177074;28;20499;-49
2021/06/01 01:06:09;;;;;;;0.57;0.30;;;20.30;76.20;;;;;;4176968;28;20041;-46
2021/06/01 01:08:45;;;;;;;0.25;0.25;;;20.30;76.20;;;;;;4169764;28;20048;-46
2021/06/01 01:11:11;;;;;;;0.00;0.00;;;20.30;76.20;;;;;;4176966;28;20061;-45
2021/06/01 01:13:37;;;;;;;0.05;0.05;;;20.30;76.20;;;;;;4177052;28;20832;-47
2021/06/01 01:16:00;;;;;;;0.22;0.22;;;20.30;76.20;;;;;;4175405;28;20102;-46
2021/06/01 01:18:25;;;;;;;0.20;0.20;;;20.30;76.40;;;;;;4176990;28;20060;-46
2021/06/01 01:20:57;;;;;;;0.75;0.75;;;20.30;76.20;;;;;;4176707;28;20060;-48
2021/06/01 01:23:21;;;;;;;1.45;1.42;;;20.30;76.30;;;;;;4176551;28;20048;-47
2021/06/01 01:25:53;;;;;;;0.00;0.00;;;20.30;76.40;;;;;;4176661;28;20071;-46
2021/06/01 01:28:27;;;;;;;0.10;0.10;;;20.20;76.30;;;;;;4176632;28;20073;-45
2021/06/01 01:30:54;;;;;;;0.28;0.28;;;20.30;76.50;;;;;;4176069;28;20045;-48
2021/06/01 01:33:23;;;;;;;1.90;0.85;;;20.20;76.50;;;;;;4176742;28;20061;-48
2021/06/01 01:35:47;;;;;;;0.00;0.00;;;20.20;76.50;;;;;;4176597;28;20490;-46
2021/06/01 01:38:09;;;;;;;0.28;0.28;;;20.20;76.60;;;;;;4176813;28;20063;-48
2021/06/01 01:40:37;;;;;;;0.03;0.03;;;20.20;76.60;;;;;;4163191;28;20549;-48
2021/06/01 01:43:02;;;;;;;0.60;0.60;;;20.20;76.70;;;;;;4160015;28;20142;-48
2021/06/01 01:45:30;;;;;;;0.45;0.40;;;20.20;76.70;;;;;;4174541;28;20057;-50
2021/06/01 01:50:37;;;;;;;0.70;0.70;;;20.20;76.70;;;;;;4159733;28;20120;-49
2021/06/01 01:52:59;;;;;;;2.72;1.60;;;20.10;76.70;;;;;;4159744;28;20052;-48
2021/06/01 01:55:22;;;;;;;0.00;0.00;;;20.20;76.80;;;;;;4161100;28;20057;-47
2021/06/01 01:57:47;;;;;;;0.00;0.00;;;20.10;76.70;;;;;;4159898;28;20071;-50
2021/06/01 02:00:11;;;;;;;0.10;0.10;;;20.10;76.70;;;;;;4171218;28;20541;-49
2021/06/01 02:02:33;;;;;;;0.10;0.10;;;20.10;77.60;;;;;;4176067;28;20103;-51
2021/06/01 02:04:58;;;;;;;0.30;0.30;;;20.10;76.70;;;;;;4176086;28;20049;-49
2021/06/01 02:07:21;;;;;;;0.30;0.30;;;20.10;76.80;;;;;;4175991;28;20506;-48
2021/06/01 02:09:43;;;;;;;0.35;0.35;;;20.10;76.80;;;;;;4176179;28;20064;-50
2021/06/01 02:12:05;;;;;;;0.00;0.00;;;20.10;77.60;;;;;;4175934;28;20079;-47
2021/06/01 02:14:27;;;;;;;0.00;0.00;;;20.10;76.80;;;;;;4166807;28;20128;-47
2021/06/01 02:16:50;;;;;;;0.00;0.00;;;20.10;77.30;;;;;;4173097;28;20056;-46
2021/06/01 02:19:15;;;;;;;0.22;0.22;;;20.10;76.90;;;;;;4159710;28;20060;-45
2021/06/01 02:21:59;;;;;;;2.15;2.05;;;20.10;76.90;;;;;;4159423;28;20184;-49
2021/06/01 02:24:32;;;;;;;0.30;0.30;;;20.00;76.80;;;;;;4159235;28;20049;-46
2021/06/01 02:27:01;;;;;;;0.22;0.22;;;20.10;76.90;;;;;;4174081;28;20044;-47
2021/06/01 02:29:28;;;;;;;2.85;1.65;;;20.00;76.70;;;;;;4175276;28;20154;-49
2021/06/01 02:31:52;;;;;;;0.35;0.35;;;20.00;77.80;;;;;;4175805;28;20061;-47
2021/06/01 02:34:14;;;;;;;0.28;0.28;;;20.00;77.20;;;;;;4175290;28;20036;-49
2021/06/01 02:36:37;;;;;;;0.00;0.00;;;20.00;77.20;;;;;;4175691;28;20454;-49
2021/06/01 02:39:00;;;;;;;0.85;0.75;;;19.90;77.20;;;;;;4175607;28;20380;-47
2021/06/01 02:41:24;;;;;;;0.98;0.82;;;19.90;77.30;;;;;;4174412;28;20600;-45
2021/06/01 02:43:45;;;;;;;4.57;1.95;;;19.90;77.40;;;;;;4175130;28;20055;-48
2021/06/01 02:46:07;;;;;;;0.20;0.20;;;19.90;77.40;;;;;;4175101;28;20144;-47
2021/06/01 02:48:30;;;;;;;0.28;0.28;;;19.90;77.50;;;;;;4174265;28;20557;-45
2021/06/01 02:50:54;;;;;;;0.00;0.00;;;19.80;77.50;;;;;;4175565;28;20056;-46
2021/06/01 02:53:15;;;;;;;0.52;0.52;;;19.80;77.50;;;;;;4175543;28;20045;-47
2021/06/01 02:55:37;;;;;;;0.00;0.00;;;19.80;77.50;;;;;;4175699;28;20051;-46
2021/06/01 02:58:06;;;;;;;0.00;0.00;;;19.80;77.50;;;;;;4175479;28;20059;-46
2021/06/01 03:00:28;;;;;;;0.08;0.08;;;19.80;77.60;;;;;;4174052;28;20048;-46
2021/06/01 03:03:15;;;;;;;0.20;0.20;;;19.80;77.60;;;;;;4175027;28;20055;-46
2021/06/01 03:06:05;;;;;;;0.10;0.10;;;19.70;77.60;;;;;;4174937;28;20079;-46
2021/06/01 03:08:28;;;;;;;0.38;0.38;;;19.70;77.60;;;;;;4173954;28;20084;-47
2021/06/01 03:10:50;;;;;;;0.10;0.10;;;19.70;77.70;;;;;;4175297;28;20056;-49
2021/06/01 03:13:13;;;;;;;0.75;0.75;;;19.70;77.70;;;;;;4175313;28;20545;-49
2021/06/01 03:15:35;;;;;;;0.00;0.00;;;19.70;77.70;;;;;;4174761;28;20056;-50
2021/06/01 03:17:56;;;;;;;0.00;0.00;;;19.70;77.70;;;;;;4173578;28;20037;-47
2021/06/01 03:20:18;;;;;;;0.45;0.45;;;19.70;77.70;;;;;;4175204;28;20410;-49
2021/06/01 03:22:40;;;;;;;0.10;0.10;;;19.70;77.80;;;;;;4174747;28;20065;-51
2021/06/01 03:25:03;;;;;;;0.05;0.05;;;19.60;77.70;;;;;;4174991;28;20395;-46
2021/06/01 03:27:25;;;;;;;2.17;1.10;;;19.60;77.70;;;;;;4174761;28;20128;-49
2021/06/01 03:29:48;;;;;;;0.00;0.00;;;19.60;77.70;;;;;;4174297;28;20474;-49
2021/06/01 03:32:09;;;;;;;0.80;0.80;;;19.60;77.70;;;;;;4174867;28;20057;-49
2021/06/01 03:34:31;;;;;;;0.60;0.60;;;19.60;77.80;;;;;;4173973;28;20072;-50
2021/06/01 03:36:56;;;;;;;0.30;0.30;;;19.60;77.70;;;;;;4159552;28;20087;-48
2021/06/01 03:39:19;;;;;;;0.20;0.20;;;19.60;77.70;;;;;;4158358;28;20486;-49
2021/06/01 03:41:41;;;;;;;1.33;1.23;;;19.50;77.80;;;;;;4159371;28;20057;-47
2021/06/01 03:44:03;;;;;;;0.00;0.00;;;19.50;77.80;;;;;;4174019;28;20055;-46
2021/06/01 03:46:26;;;;;;;0.63;0.63;;;19.50;77.80;;;;;;4174775;28;20149;-46
2021/06/01 03:48:47;;;;;;;0.52;0.52;;;19.50;77.70;;;;;;4174771;28;20143;-49
2021/06/01 03:51:09;;;;;;;0.05;0.05;;;19.50;77.70;;;;;;4174806;28;20096;-46
2021/06/01 03:53:30;;;;;;;0.57;0.57;;;19.60;77.70;;;;;;4172855;28;20072;-51
2021/06/01 03:55:52;;;;;;;0.03;0.03;;;19.60;77.70;;;;;;4174414;28;20044;-50
2021/06/01 03:58:13;;;;;;;0.40;0.40;;;19.50;77.70;;;;;;4174608;28;20103;-49
2021/06/01 04:00:35;;;;;;;0.55;0.55;;;19.50;77.80;;;;;;4172922;28;20140;-51
2021/06/01 04:02:59;;;;;;;0.20;0.20;;;19.50;77.80;;;;;;4174104;28;20061;-46
2021/06/01 04:05:21;;;;;;;0.00;0.00;;;19.50;78.70;;;;;;4174273;28;20499;-50
2021/06/01 04:07:45;;;;;;;0.17;0.17;;;19.50;77.90;;;;;;4174388;28;20095;-45
2021/06/01 04:10:08;;;;;;;0.28;0.28;;;19.50;77.90;;;;;;4174459;28;20152;-47
2021/06/01 04:12:29;;;;;;;0.38;0.38;;;19.50;77.80;;;;;;4173817;28;20140;-46
2021/06/01 04:14:51;;;;;;;0.00;0.00;;;19.50;77.90;;;;;;4173825;28;20503;-49
2021/06/01 04:17:12;;;;;;;1.17;1.08;;;19.50;77.90;;;;;;4173969;28;20053;-47
2021/06/01 04:19:35;;;;;;;0.00;0.00;;;19.50;77.80;;;;;;4174205;28;20068;-46
2021/06/01 04:21:57;;;;;;;0.20;0.20;;;19.60;78.60;;;;;;4174260;28;20037;-50
2021/06/01 04:24:18;;;;;;;0.20;0.20;;;19.60;77.70;;;;;;4157939;28;20475;-46
2021/06/01 04:26:40;;;;;;;0.08;0.08;;;19.60;77.60;;;;;;4158040;28;20590;-45
2021/06/01 04:29:02;;;;;;;0.52;0.52;;;19.60;77.50;;;;;;4160852;28;20462;-49
2021/06/01 04:31:24;;;;;;;0.10;0.10;;;19.70;77.40;;;;;;4175463;28;20487;-45
2021/06/01 04:33:48;;;;;;;0.52;0.22;;;19.70;77.20;;;;;;4177107;28;20510;-46
2021/06/01 04:36:11;;;;;;;0.00;0.00;;;19.70;77.10;;;;;;4177477;28;20060;-50
2021/06/01 04:38:32;;;;;;;0.00;0.00;;;19.70;76.90;;;;;;4177664;28;20122;-47
2021/06/01 04:40:54;;;;;;;0.77;0.45;;;19.80;76.70;;;;;;4177218;28;20059;-49
2021/06/01 04:43:15;;;;;;;0.10;0.10;;;19.80;76.50;;;;;;4177281;28;20041;-49
2021/06/01 04:45:37;;;;;;;0.20;0.20;;;19.90;76.40;;;;;;4157912;28;20052;-50
2021/06/01 04:47:59;;;;;;;1.33;0.70;;;19.80;76.20;;;;;;4145888;28;20041;-46
2021/06/01 04:50:20;;;;;;;0.32;0.32;;;19.80;76.10;;;;;;4144418;28;20132;-47
2021/06/01 04:52:44;;;;;;;0.52;0.43;;;19.80;76.00;;;;;;4155245;28;20049;-49
2021/06/01 04:55:08;;;;;;;0.00;0.00;;;19.80;76.00;;;;;;4159165;28;20049;-45
2021/06/01 04:57:30;;;;;;;0.43;0.43;;;19.80;76.10;;;;;;4161150;28;20136;-49
2021/06/01 04:59:52;;;;;;;0.10;0.10;;;19.80;76.30;;;;;;4174995;28;20087;-47
2021/06/01 05:02:14;;;;;;;0.00;0.00;;;19.80;76.50;;;;;;4176999;28;20140;-49
2021/06/01 05:04:35;;;;;;;0.20;0.20;;;19.80;76.40;;;;;;4177093;28;20044;-51
2021/06/01 05:06:58;;;;;;;2.28;1.33;;;19.80;76.20;;;;;;4176908;28;20095;-46
2021/06/01 05:09:21;;;;;;;0.80;0.80;;;19.90;76.10;;;;;;4161743;28;20132;-45
2021/06/01 05:11:42;;;;;;;0.10;0.10;;;19.90;76.00;;;;;;4172136;28;20087;-48
2021/06/01 05:14:10;;;;;;;0.00;0.00;;;20.10;75.60;;;;;;4162148;28;20068;-49
2021/06/01 05:16:31;;;;;;;0.08;0.08;;;20.30;74.60;;;;;;4163306;28;20053;-50
2021/06/01 05:18:53;;;;;;;0.30;0.30;;;20.40;73.70;;;;;;4160418;28;20053;-50
2021/06/01 05:21:14;;;;;;;0.63;0.63;;;20.60;72.80;;;;;;4176972;28;20056;-47
2021/06/01 05:23:36;;;;;;;0.47;0.47;;;20.70;72.20;;;;;;4176976;28;20056;-45
2021/06/01 05:25:59;;;;;;;0.00;0.00;;;20.90;71.80;;;;;;4177086;28;20068;-46
2021/06/01 05:28:20;;;;;;;0.03;0.03;;;21.00;71.30;;;;;;4176331;28;20049;-46
2021/06/01 05:30:47;;;;;;;;;;;21.00;70.70;;;;;;4177055;28;20049;-49
2021/06/01 05:33:17;;;;;;;0.15;0.15;;;21.10;70.90;;;;;;4172151;28;19929;-50
2021/06/01 05:35:42;;;;;;;0.10;0.10;;;21.10;70.80;;;;;;4173278;28;20490;-46
2021/06/01 05:38:03;;;;;;;0.38;0.35;;;21.10;70.70;;;;;;4174286;28;20057;-50
2021/06/01 05:40:26;;;;;;;0.00;0.00;;;21.10;70.60;;;;;;4170213;28;20045;-48
2021/06/01 05:42:49;;;;;;;1.02;0.60;;;21.10;70.50;;;;;;4159419;28;20412;-49
2021/06/01 05:45:12;;;;;;;0.32;0.32;;;21.10;70.30;;;;;;4157455;28;20103;-48
2021/06/01 05:47:33;;;;;;;0.47;0.47;;;21.10;70.20;;;;;;4157111;28;20065;-45
2021/06/01 05:49:54;;;;;;;;;;;21.00;70.20;;;;;;4158474;28;20099;-47
2021/06/01 05:52:16;;;;;;;0.30;0.30;;;21.00;70.30;;;;;;4159974;28;20011;-48
2021/06/01 05:54:38;;;;;;;0.50;0.50;;;20.90;71.40;;;;;;4159593;28;20123;-50
2021/06/01 05:56:59;;;;;;;0.68;0.68;;;20.80;70.70;;;;;;4161636;28;20041;-48
2021/06/01 05:59:22;;;;;;;0.00;0.00;;;20.80;70.80;;;;;;4175104;28;20086;-45
2021/06/01 06:01:44;;;;;;;0.38;0.38;;;20.80;70.90;;;;;;4175857;28;20057;-50
2021/06/01 06:04:06;;;;;;;0.00;0.00;;;20.70;71.10;;;;;;4162520;28;20052;-45
2021/06/01 06:06:27;;;;;;;0.98;0.75;;;20.70;71.10;;;;;;4176172;28;20068;-47
2021/06/01 06:08:49;;;;;;;0.00;0.00;;;20.70;71.20;;;;;;4176145;28;20056;-47
2021/06/01 06:11:10;;;;;;;0.00;0.00;;;20.70;71.40;;;;;;4176207;28;20049;-47
2021/06/01 06:13:32;;;;;;;0.10;0.10;;;20.70;71.30;;;;;;4173778;28;20049;-45
2021/06/01 06:15:55;;;;;;;0.73;0.73;;;20.70;71.20;;;;;;4167334;28;20064;-48
2021/06/01 06:18:23;;;;;;;2.08;1.95;;;20.70;71.30;;;;;;4175887;28;20053;-46
2021/06/01 06:20:45;;;;;;;0.10;0.10;;;20.70;71.20;;;;;;4174784;28;20488;-47
2021/06/01 06:23:07;;;;;;;0.10;0.10;;;20.70;71.00;;;;;;4170044;28;20080;-48
2021/06/01 06:25:29;;;;;;;0.00;0.00;;;20.70;70.90;;;;;;4172776;28;20535;-50
2021/06/01 06:27:51;;;;;;;0.90;0.90;;;20.70;70.90;;;;;;4176198;28;20492;-46
2021/06/01 06:30:13;;;;;;;7.88;1.50;;;20.80;71.00;;;;;;4159196;28;20065;-47
2021/06/01 06:32:37;;;;;;;0.15;0.15;;;20.70;70.90;;;;;;4175004;28;20049;-49
2021/06/01 06:34:58;;;;;;;0.80;0.80;;;20.70;71.00;;;;;;4173947;28;20056;-50
2021/06/01 06:37:20;;;;;;;0.13;0.13;;;20.80;71.10;;;;;;4159126;28;20049;-47
2021/06/01 06:39:41;;;;;;;0.43;0.43;;;20.90;70.80;;;;;;4159170;28;20061;-47
2021/06/01 06:42:04;;;;;;;0.20;0.20;;;21.00;70.60;;;;;;4159161;28;20096;-48
2021/06/01 06:44:25;;;;;;;1.95;1.50;;;21.00;70.30;;;;;;4159156;28;20464;-48
2021/06/01 06:47:02;;;;;;;0.03;0.03;;;21.10;69.90;;;;;;4159129;28;20059;-50
2021/06/01 06:49:25;;;;;;;0.70;0.30;;;21.20;69.70;;;;;;4158843;28;20195;-51
2021/06/01 06:51:47;;;;;;;5.38;2.85;;;21.30;69.30;;;;;;4159169;28;20065;-50
2021/06/01 06:54:09;;;;;;;0.20;0.20;;;21.30;69.00;;;;;;4158799;28;20045;-50
2021/06/01 06:56:31;;;;;;;0.30;0.30;;;21.40;68.70;;;;;;4158213;28;20138;-53
2021/06/01 06:58:53;;;;;;;0.10;0.10;;;21.50;68.20;;;;;;4158980;28;20457;-50
2021/06/01 07:01:15;;;;;;;0.00;0.00;;;21.60;67.80;;;;;;4157945;28;20053;-51
2021/06/01 07:03:37;;;;;;;0.10;0.10;;;21.70;67.30;;;;;;4158957;28;21074;-50
2021/06/01 07:06:00;;;;;;;1.85;1.75;;;21.70;67.00;;;;;;4158757;28;20535;-50
2021/06/01 07:08:21;;;;;;;0.30;0.30;;;21.80;66.70;;;;;;4158828;28;20049;-54
2021/06/01 07:10:43;;;;;;;0.30;0.30;;;21.90;66.40;;;;;;4158794;28;20056;-53
2021/06/01 07:13:09;;;;;;;1.50;1.45;;;21.90;66.10;;;;;;4158567;28;20049;-49
2021/06/01 07:15:41;;;;;;;0.15;0.15;;;22.00;65.80;;;;;;4158539;28;20385;-49
2021/06/01 07:18:03;;;;;;;0.43;0.43;;;22.00;65.50;;;;;;4157998;28;20049;-51
2021/06/01 07:20:30;;;;;;;2.97;1.30;;;22.10;65.30;;;;;;4158571;28;20128;-47
2021/06/01 07:22:52;;;;;;;0.45;0.45;;;22.10;65.20;;;;;;4142121;28;20054;-52
2021/06/01 07:25:14;;;;;;;0.57;0.57;;;22.10;64.90;;;;;;4142126;28;20052;-49
2021/06/01 07:27:36;;;;;;;0.00;0.00;;;22.10;64.90;;;;;;4158484;28;20051;-51
2021/06/01 07:29:57;;;;;;;1.13;0.38;;;22.10;64.80;;;;;;4158246;28;20057;-50
2021/06/01 07:32:20;;;;;;;3.17;1.42;;;22.10;64.80;;;;;;4158344;28;20052;-48
2021/06/01 07:34:42;;;;;;;2.85;2.13;;;22.10;64.80;;;;;;4172148;28;20048;-48
2021/06/01 07:37:03;;;;;;;2.28;2.10;;;22.10;64.80;;;;;;4174837;28;20057;-50
2021/06/01 07:39:27;;;;;;;0.55;0.55;;;22.10;65.00;;;;;;4174741;28;20041;-49
2021/06/01 07:41:48;;;;;;;0.90;0.30;;;22.10;65.80;;;;;;4174922;28;20045;-53
2021/06/01 07:44:10;;;;;;;0.93;0.93;;;22.10;66.40;;;;;;4174680;28;20052;-52
2021/06/01 07:46:33;;;;;;;3.40;1.17;;;22.20;66.60;;;;;;4174861;28;20456;-53
2021/06/01 07:48:54;;;;;;;0.80;0.80;;;22.10;66.30;;;;;;4174464;28;20091;-50
2021/06/01 07:51:27;;;;;;;0.20;0.20;;;22.20;66.10;;;;;;4174801;28;20048;-53
2021/06/01 07:53:49;;;;;;;0.13;0.13;;;22.10;66.00;;;;;;4174218;28;20555;-55
2021/06/01 07:56:12;;;;;;;0.20;0.20;;;22.10;65.90;;;;;;4174572;28;20053;-50
2021/06/01 07:58:34;;;;;;;0.43;0.43;;;22.10;65.90;;;;;;4174405;28;20061;-51
2021/06/01 08:00:56;;;;;;;2.40;1.05;;;22.10;65.70;;;;;;4174438;28;20099;-50
2021/06/01 08:03:18;;;;;;;1.00;1.00;;;22.10;65.70;;;;;;4172226;28;20559;-51
2021/06/01 08:05:39;;;;;;;0.10;0.10;;;22.10;65.60;;;;;;4174104;28;20051;-51
2021/06/01 08:08:01;;;;;;;0.35;0.35;;;22.10;65.40;;;;;;4174522;28;20465;-48
2021/06/01 08:10:23;;;;;;;4.72;0.45;;;22.10;65.30;;;;;;4174464;28;20075;-49
2021/06/01 08:12:45;;;;;;;0.47;0.47;;;22.10;65.20;;;;;;4174229;28;20053;-52
2021/06/01 08:15:09;;;;;;;0.10;0.10;;;22.10;65.10;;;;;;4174539;28;20499;-52
2021/06/01 08:17:31;;;;;;;0.00;0.00;;;22.10;64.90;;;;;;4174154;28;20053;-51
2021/06/01 08:19:54;;;;;;;0.10;0.10;;;22.10;64.80;;;;;;4174481;28;20045;-48
2021/06/01 08:22:30;;;;;;;0.47;0.47;;;22.10;64.80;;;;;;4174143;28;20045;-53
2021/06/01 08:24:51;;;;;;;0.38;0.38;;;22.10;64.60;;;;;;4173977;28;20412;-49
2021/06/01 08:27:13;;;;;;;0.68;0.68;;;22.10;64.50;;;;;;4174408;28;20060;-49
2021/06/01 08:29:36;;;;;;;0.52;0.52;;;22.10;64.30;;;;;;4174103;28;20063;-50
2021/06/01 08:31:58;;;;;;;0.40;0.40;;;22.10;64.10;;;;;;4174323;28;20049;-51
2021/06/01 08:34:19;;;;;;;2.20;1.48;;;22.10;63.90;;;;;;4163596;28;20041;-48
2021/06/01 08:36:41;;;;;;;0.98;0.20;;;22.10;63.70;;;;;;4157868;28;20400;-51
2021/06/01 08:39:06;;;;;;;0.45;0.45;;;22.10;63.60;;;;;;4157894;28;20057;-53
2021/06/01 08:41:27;;;;;;;0.10;0.10;;;22.20;63.50;;;;;;4158090;28;20041;-53
2021/06/01 08:43:51;;;;;;;0.15;0.15;;;22.20;63.40;;;;;;4157879;28;20444;-51
2021/06/01 08:46:14;;;;;;;0.32;0.32;;;22.20;63.10;;;;;;4158079;28;20058;-49
2021/06/01 08:48:36;;;;;;;0.75;0.75;;;22.20;63.40;;;;;;4157701;28;20099;-52
2021/06/01 08:50:58;;;;;;;0.00;0.00;;;22.20;62.70;;;;;;4157786;28;20049;-51
2021/06/01 08:53:20;;;;;;;0.10;0.10;;;22.20;62.60;;;;;;4157639;28;20060;-50
2021/06/01 08:55:43;;;;;;;0.13;0.13;;;22.30;62.50;;;;;;4157701;28;20059;-48
2021/06/01 08:58:04;;;;;;;1.55;1.13;;;22.30;62.40;;;;;;4157592;28;20042;-49
2021/06/01 09:00:26;;;;;;;0.80;0.38;;;22.30;62.20;;;;;;4157847;28;20049;-52
2021/06/01 09:03:05;;;;;;;0.13;0.13;;;22.30;62.10;;;;;;4157495;28;20046;-46
2021/06/01 09:05:27;;;;;;;0.00;0.00;;;22.40;62.00;;;;;;4157565;28;20103;-50
2021/06/01 09:07:53;;;;;;;3.10;0.98;;;22.40;61.90;;;;;;4157596;28;20215;-49
2021/06/01 09:10:33;;;;;;;0.00;0.00;;;22.40;61.70;;;;;;4157429;28;20135;-50
2021/06/01 09:19:46;;;;;;;0.13;0.13;;;22.40;61.30;;;;;;4156968;28;20423;-48
2021/06/01 09:21:16;;;;;;;0.35;0.35;;;22.50;61.00;;;;;;4159320;28;20041;-52
2021/06/01 09:23:51;;;;;;;0.10;0.10;;;22.50;60.80;;;;;;4160504;28;20049;-51
2021/06/01 09:26:41;;;;;;;0.00;0.00;;;22.60;60.70;;;;;;4160335;28;20482;-47
2021/06/01 09:29:03;;;;;;;0.15;0.15;;;22.60;60.60;;;;;;4158561;28;20049;-52
2021/06/01 09:31:25;;;;;;;0.00;0.00;;;22.60;60.40;;;;;;4160297;28;20045;-51
2021/06/01 09:33:51;;;;;;;0.10;0.10;;;22.60;60.30;;;;;;4159798;28;20049;-50
2021/06/01 09:36:22;;;;;;;0.20;0.20;;;22.70;61.10;;;;;;4176217;28;20055;-52
2021/06/01 09:38:44;;;;;;;0.40;0.40;;;22.70;60.10;;;;;;4176287;28;20128;-58
2021/06/01 09:41:11;;;;;;;0.00;0.00;;;22.70;60.00;;;;;;4176571;28;20045;-51
2021/06/01 09:43:34;;;;;;;0.20;0.20;;;22.70;59.90;;;;;;4176240;28;20052;-51
2021/06/01 09:45:55;;;;;;;0.82;0.82;;;22.70;59.80;;;;;;4176557;28;20770;-52
2021/06/01 09:48:17;;;;;;;0.55;0.55;;;22.80;60.60;;;;;;4176567;28;20067;-47
2021/06/01 09:50:45;;;;;;;0.22;0.22;;;22.80;59.70;;;;;;4176494;28;20495;-50
2021/06/01 09:53:09;;;;;;;0.00;0.00;;;22.80;59.60;;;;;;4176495;28;20068;-47
2021/06/01 09:55:35;;;;;;;0.25;0.25;;;22.80;59.50;;;;;;4168514;28;20137;-46
2021/06/01 09:57:58;;;;;;;0.30;0.30;;;22.80;59.50;;;;;;4167492;28;20053;-46
2021/06/01 10:00:21;;;;;;;4.57;1.65;;;22.90;59.50;;;;;;4160756;28;20492;-51
2021/06/01 10:02:44;;;;;;;0.25;0.25;;;22.90;59.30;;;;;;4164229;28;20066;-45
2021/06/01 10:05:12;;;;;;;1.15;1.15;;;22.90;59.80;;;;;;4159912;28;20053;-45
2021/06/01 10:07:36;;;;;;;2.45;1.65;;;23.00;60.20;;;;;;4159922;28;20070;-45
2021/06/01 10:09:58;;;;;;;12.05;3.80;;;23.00;59.80;;;;;;4163129;28;20426;-46
2021/06/01 10:12:23;;;;;;;5.55;4.90;;;23.00;59.90;;;;;;4176301;28;20045;-46
2021/06/01 10:14:44;;;;;;;10.57;5.80;;;23.00;60.00;;;;;;4159828;28;20500;-48
2021/06/01 10:17:15;;;;;;;6.03;4.50;;;23.00;59.80;;;;;;4159208;28;20168;-50
2021/06/01 10:19:37;;;;;;;8.13;4.45;;;23.00;59.50;;;;;;4159568;28;20053;-46
2021/06/01 10:21:58;;;;;;;7.07;2.88;;;23.10;59.50;;;;;;4159714;28;20049;-48
2021/06/01 10:24:22;;;;;;;11.93;2.90;;;23.10;59.30;;;;;;4165407;28;20069;-48
2021/06/01 10:26:44;;;;;;;16.77;3.60;;;23.10;59.20;;;;;;4166463;28;20049;-46
2021/06/01 10:29:06;;;;;;;2.08;1.98;;;23.10;59.20;;;;;;4175361;28;20451;-47
2021/06/01 10:31:36;;;;;;;1.45;1.40;;;23.10;59.10;;;;;;4175278;28;20052;-47
2021/06/01 10:34:00;;;;;;;1.58;1.58;;;23.10;59.00;;;;;;4175553;28;20053;-49
2021/06/01 10:42:28;;;;;;;1.48;1.15;;;23.20;58.90;;;;;;4175879;28;20419;-46
2021/06/01 10:44:53;;;;;;;1.92;1.85;;;23.20;58.70;;;;;;4175344;28;20049;-46
2021/06/01 10:50:27;;;;;;;0.60;0.60;;;23.20;58.40;;;;;;4159997;28;20107;-46
2021/06/01 10:53:05;;;;;;;1.25;1.25;;;23.30;58.30;;;;;;4142631;28;20071;-46
2021/06/01 10:55:28;;;;;;;1.58;1.48;;;23.30;58.20;;;;;;4156705;28;20052;-47
2021/06/01 10:58:00;;;;;;;0.38;0.38;;;23.30;58.00;;;;;;4175245;28;20069;-46
2021/06/01 11:03:05;;;;;;;1.60;1.50;;;23.30;57.90;;;;;;4174972;28;20080;-46
2021/06/01 11:05:27;;;;;;;0.82;0.82;;;23.30;57.90;;;;;;4175404;28;20056;-46
2021/06/01 11:07:55;;;;;;;0.63;0.63;;;23.40;58.40;;;;;;4173874;28;20102;-47
2021/06/01 11:10:36;;;;;;;1.15;0.77;;;23.40;58.00;;;;;;4158663;28;20041;-49
2021/06/01 11:12:59;;;;;;;0.20;0.20;;;23.40;57.10;;;;;;4158626;28;20049;-46
2021/06/01 11:15:42;;;;;;;0.47;0.47;;;23.40;57.00;;;;;;4158331;28;20061;-50
2021/06/01 11:18:15;;;;;;;0.30;0.30;;;23.40;56.80;;;;;;4158461;28;20128;-49
2021/06/01 11:20:40;;;;;;;0.65;0.65;;;23.50;56.50;;;;;;4158978;28;20061;-48
2021/06/01 11:23:12;;;;;;;0.10;0.10;;;23.50;56.20;;;;;;4158445;28;20383;-45
2021/06/01 11:29:03;;;;;;;1.55;1.45;;;23.60;56.20;;;;;;4160825;28;20053;-47
2021/06/01 11:34:20;;;;;;;4.07;0.73;;;23.60;56.10;;;;;;4174414;28;20103;-50
2021/06/01 11:36:41;;;;;;;0.00;0.00;;;23.60;56.00;;;;;;4174918;28;20099;-49
2021/06/01 11:39:14;;;;;;;0.10;0.10;;;23.60;56.00;;;;;;4174608;28;20464;-48
2021/06/01 11:44:27;;;;;;;0.95;0.70;;;23.60;55.90;;;;;;4114855;28;20050;-48
2021/06/01 11:46:53;;;;;;;1.17;1.17;;;23.60;56.40;;;;;;4143598;28;20054;-47
2021/06/01 11:51:55;;;;;;;0.55;0.55;;;23.70;56.10;;;;;;4174897;28;20057;-47
2021/06/01 11:54:17;;;;;;;0.30;0.30;;;23.70;55.90;;;;;;4171340;28;20595;-48
2021/06/01 11:56:45;;;;;;;0.10;0.10;;;23.70;55.80;;;;;;4158375;28;20863;-46
2021/06/01 12:02:11;;;;;;;0.00;0.00;;;23.70;55.10;;;;;;4156097;28;20046;-46
2021/06/01 12:04:49;;;;;;;0.30;0.30;;;23.80;55.00;;;;;;4158223;28;20053;-47
2021/06/01 12:12:48;;;;;;;0.88;0.88;;;23.90;54.50;;;;;;4174481;28;20049;-45
2021/06/01 12:17:58;;;;;;;0.60;0.47;;;23.90;54.10;;;;;;4170034;28;20496;-48
2021/06/01 12:20:20;;;;;;;0.10;0.10;;;23.90;54.00;;;;;;4165426;28;20068;-50
2021/06/01 12:22:49;;;;;;;0.13;0.13;;;24.00;53.60;;;;;;4174162;28;20052;-49
2021/06/01 12:25:12;;;;;;;0.10;0.10;;;24.00;52.90;;;;;;4174043;28;20438;-46
2021/06/01 12:27:52;;;;;;;0.05;0.05;;;24.00;52.70;;;;;;4174801;28;20048;-47
2021/06/01 12:33:07;;;;;;;0.20;0.20;;;24.00;52.30;;;;;;4157787;28;20056;-49
2021/06/01 12:35:41;;;;;;;0.28;0.28;;;24.10;52.30;;;;;;4157829;28;20045;-46
2021/06/01 12:43:37;;;;;;;0.00;0.00;;;24.10;52.10;;;;;;4157924;28;20053;-48
2021/06/01 12:46:11;;;;;;;0.10;0.10;;;24.10;52.00;;;;;;4174201;28;20049;-47
2021/06/01 13:08:38;;;;;;;0.50;0.50;;;24.20;52.90;;;;;;4151651;28;20060;-45
2021/06/01 13:14:30;;;;;;;0.45;0.45;;;24.10;52.80;;;;;;4143747;28;20050;-52
2021/06/01 13:19:36;;;;;;;0.55;0.55;;;24.10;52.70;;;;;;4159889;28;20077;-46
2021/06/01 13:22:08;;;;;;;0.20;0.20;;;24.20;53.00;;;;;;4163788;28;20123;-50
2021/06/01 13:30:27;;;;;;;0.43;0.22;;;24.20;52.80;;;;;;4163560;28;20411;-52
2021/06/01 13:38:34;;;;;;;0.10;0.10;;;24.20;53.10;;;;;;4169711;28;20503;-46
2021/06/01 13:46:37;;;;;;;0.35;0.35;;;24.30;52.80;;;;;;4158639;28;20435;-47
2021/06/01 13:49:09;;;;;;;0.05;0.05;;;24.30;53.70;;;;;;4160439;28;20077;-46
2021/06/01 13:51:45;;;;;;;0.35;0.35;;;24.30;53.10;;;;;;4143756;28;20496;-46
2021/06/01 13:56:54;;;;;;;0.32;0.32;;;24.30;53.40;;;;;;4157981;28;20458;-46
2021/06/01 13:59:24;;;;;;;0.10;0.10;;;24.30;53.50;;;;;;4155053;28;20072;-46
2021/06/01 14:10:23;;;;;;;0.08;0.08;;;24.30;53.10;;;;;;4139072;28;20058;-45
2021/06/01 14:15:37;;;;;;;0.10;0.10;;;24.40;53.50;;;;;;4175684;28;20041;-47
2021/06/01 14:31:41;;;;;;;0.40;0.40;;;24.40;53.50;;;;;;4175740;28;20045;-47
2021/06/01 14:37:03;;;;;;;1.08;0.10;;;24.40;53.90;;;;;;4176012;28;20048;-47
2021/06/01 15:04:00;;;;;;;0.80;0.80;;;24.50;55.00;;;;;;4148298;28;20136;-47